createdAt,value
2019-01-13T00:01:42.891Z,19.80
2019-01-13T00:04:28.011Z,13.30
2019-01-13T00:07:12.874Z,15.90
2019-01-13T00:09:58.140Z,12.90
2019-01-13T00:12:42.787Z,15.63
2019-01-13T00:15:27.589Z,13.83
2019-01-13T00:18:12.695Z,12.50
2019-01-13T00:20:57.646Z,13.77
2019-01-13T00:23:42.676Z,15.47
2019-01-13T00:26:27.643Z,13.43
2019-01-13T00:29:12.679Z,14.97
2019-01-13T00:31:57.805Z,12.57
2019-01-13T00:34:42.894Z,16.03
2019-01-13T00:37:28.054Z,13.53
2019-01-13T00:40:15.933Z,13.30
2019-01-13T00:43:00.968Z,12.33
2019-01-13T00:45:45.911Z,16.30
2019-01-13T00:48:30.566Z,17.50
2019-01-13T00:51:15.351Z,12.60
2019-01-13T00:54:00.464Z,17.00
2019-01-13T00:56:45.639Z,13.77
2019-01-13T00:59:30.632Z,14.00
2019-01-13T01:02:15.759Z,13.23
2019-01-13T01:05:00.281Z,13.83
2019-01-13T01:07:47.131Z,12.03
2019-01-13T01:10:32.050Z,15.63
2019-01-13T01:13:17.024Z,13.60
2019-01-13T01:16:02.375Z,14.50
2019-01-13T01:18:47.287Z,15.57
2019-01-13T01:21:32.275Z,14.30
2019-01-13T01:24:17.248Z,13.73
2019-01-13T01:27:02.556Z,17.07
2019-01-13T01:29:47.382Z,14.37
2019-01-13T01:32:32.018Z,11.97
2019-01-13T01:35:16.676Z,15.57
2019-01-13T01:38:01.408Z,13.77
2019-01-13T01:40:46.441Z,15.30
2019-01-13T01:43:31.371Z,17.57
2019-01-13T01:46:15.954Z,16.23
2019-01-13T01:49:00.960Z,14.37
2019-01-13T01:51:46.066Z,14.83
2019-01-13T01:54:31.343Z,17.33
2019-01-13T01:57:16.197Z,17.23
2019-01-13T02:00:00.591Z,18.60
2019-01-13T02:02:45.706Z,15.07
2019-01-13T02:05:30.341Z,19.73
2019-01-13T02:08:15.359Z,16.77
2019-01-13T02:11:00.066Z,16.20
2019-01-13T02:13:44.981Z,17.27
2019-01-13T02:16:29.808Z,17.93
2019-01-13T02:19:14.684Z,17.10
2019-01-13T02:21:59.371Z,18.00
2019-01-13T02:24:44.389Z,13.00
2019-01-13T02:27:29.535Z,16.27
2019-01-13T02:30:17.221Z,19.37
2019-01-13T02:33:02.056Z,20.93
2019-01-13T02:35:46.835Z,17.80
2019-01-13T02:38:31.775Z,19.60
2019-01-13T02:41:17.090Z,19.10
2019-01-13T02:44:02.164Z,18.03
2019-01-13T02:46:47.271Z,17.30
2019-01-13T02:49:32.288Z,17.27
2019-01-13T02:52:17.303Z,17.03
2019-01-13T02:55:03.875Z,21.30
2019-01-13T02:57:48.977Z,20.20
2019-01-13T03:00:33.829Z,17.37
2019-01-13T03:03:18.593Z,24.57
2019-01-13T03:06:03.324Z,26.03
2019-01-13T03:08:48.069Z,24.80
2019-01-13T03:11:32.733Z,27.60
2019-01-13T03:14:17.793Z,29.73
2019-01-13T03:17:02.589Z,25.97
2019-01-13T03:19:47.696Z,28.03
2019-01-13T03:22:32.581Z,25.00
2019-01-13T03:25:18.951Z,26.27
2019-01-13T03:28:03.838Z,28.43
2019-01-13T03:30:48.854Z,23.53
2019-01-13T03:33:33.899Z,30.63
2019-01-13T03:36:18.905Z,30.23
2019-01-13T03:39:06.185Z,27.03
2019-01-13T03:41:51.425Z,24.13
2019-01-13T03:44:36.391Z,21.43
2019-01-13T03:47:21.015Z,21.90
2019-01-13T03:50:09.325Z,21.27
2019-01-13T03:52:54.398Z,22.33
2019-01-13T03:55:39.270Z,23.23
2019-01-13T03:58:23.848Z,18.77
2019-01-13T04:01:08.494Z,23.00
2019-01-13T04:03:53.526Z,17.63
2019-01-13T04:06:38.225Z,22.37
2019-01-13T04:09:22.761Z,23.57
2019-01-13T04:12:07.941Z,20.17
2019-01-13T04:14:52.930Z,28.67
2019-01-13T04:17:37.668Z,24.73
2019-01-13T04:20:22.755Z,27.03
2019-01-13T04:23:07.513Z,23.20
2019-01-13T04:25:52.442Z,25.20
2019-01-13T04:28:37.560Z,27.93
2019-01-13T04:31:26.871Z,24.73
2019-01-13T04:34:09.130Z,30.63
2019-01-13T04:36:54.123Z,30.80
2019-01-13T04:39:39.344Z,31.70
2019-01-13T04:42:24.438Z,30.83
2019-01-13T04:45:09.165Z,30.03
2019-01-13T04:47:53.891Z,31.87
2019-01-13T04:50:39.100Z,35.03
2019-01-13T04:53:24.266Z,36.63
2019-01-13T04:56:08.869Z,34.90
2019-01-13T04:58:53.516Z,34.60
2019-01-13T05:01:38.080Z,37.57
2019-01-13T05:04:22.810Z,33.90
2019-01-13T05:07:07.838Z,35.00
2019-01-13T05:09:52.443Z,34.90
2019-01-13T05:12:37.450Z,34.07
2019-01-13T05:15:22.114Z,29.63
2019-01-13T05:18:07.029Z,32.27
2019-01-13T05:20:51.838Z,31.87
2019-01-13T05:23:36.610Z,33.17
2019-01-13T05:26:21.436Z,35.27
2019-01-13T05:29:06.392Z,33.27
2019-01-13T05:31:51.221Z,38.30
2019-01-13T05:34:36.174Z,33.37
2019-01-13T05:37:21.437Z,35.57
2019-01-13T05:40:09.984Z,35.23
2019-01-13T05:42:54.868Z,36.47
2019-01-13T05:45:39.789Z,35.47
2019-01-13T05:48:24.458Z,35.77
2019-01-13T05:51:09.058Z,31.97
2019-01-13T05:53:53.635Z,35.00
2019-01-13T05:56:38.145Z,35.33
2019-01-13T05:59:22.795Z,32.90
2019-01-13T06:02:07.230Z,36.50
2019-01-13T06:04:52.435Z,34.90
2019-01-13T06:07:36.880Z,34.90
2019-01-13T06:10:21.556Z,33.50
2019-01-13T06:13:06.384Z,31.77
2019-01-13T06:15:51.524Z,33.73
2019-01-13T06:18:36.555Z,37.27
2019-01-13T06:21:21.018Z,36.30
2019-01-13T06:24:05.562Z,33.63
2019-01-13T06:26:50.615Z,39.50
2019-01-13T06:29:35.655Z,37.40
2019-01-13T06:32:20.262Z,37.60
2019-01-13T06:35:05.512Z,40.03
2019-01-13T06:37:50.503Z,41.83
2019-01-13T06:40:35.143Z,37.80
2019-01-13T06:43:20.140Z,34.53
2019-01-13T06:46:04.596Z,41.67
2019-01-13T06:48:49.143Z,36.23
2019-01-13T06:51:33.734Z,38.70
2019-01-13T06:54:18.899Z,36.77
2019-01-13T06:57:04.052Z,39.97
2019-01-13T06:59:49.284Z,30.87
2019-01-13T07:02:34.529Z,33.57
2019-01-13T07:05:19.715Z,29.83
2019-01-13T07:08:04.554Z,37.70
2019-01-13T07:10:49.617Z,33.90
2019-01-13T07:13:34.415Z,32.63
2019-01-13T07:16:19.408Z,32.50
2019-01-13T07:19:04.451Z,36.58
2019-01-13T07:21:50.533Z,30.50
2019-01-13T07:24:36.053Z,32.60
2019-01-13T07:27:20.858Z,32.63
2019-01-13T07:30:14.367Z,34.07
2019-01-13T07:32:58.977Z,26.40
2019-01-13T07:35:43.733Z,32.37
2019-01-13T07:38:28.756Z,29.07
2019-01-13T07:41:13.620Z,34.33
2019-01-13T07:43:58.628Z,25.87
2019-01-13T07:46:43.397Z,32.97
2019-01-13T07:49:28.280Z,36.23
2019-01-13T07:52:12.903Z,38.87
2019-01-13T07:54:57.973Z,44.87
2019-01-13T07:57:42.653Z,41.87
2019-01-13T08:00:28.732Z,39.50
2019-01-13T08:03:13.528Z,38.97
2019-01-13T08:05:58.730Z,32.80
2019-01-13T08:08:43.860Z,35.33
2019-01-13T08:11:28.602Z,28.53
2019-01-13T08:14:13.626Z,33.90
2019-01-13T08:16:58.244Z,24.93
2019-01-13T08:19:43.235Z,24.03
2019-01-13T08:22:28.193Z,20.30
2019-01-13T08:25:12.874Z,21.97
2019-01-13T08:27:57.374Z,17.97
2019-01-13T08:30:42.549Z,15.63
2019-01-13T08:33:27.497Z,16.47
2019-01-13T08:36:12.203Z,15.53
2019-01-13T08:38:57.150Z,17.63
2019-01-13T08:41:42.119Z,19.90
2019-01-13T08:44:26.811Z,16.80
2019-01-13T08:47:11.685Z,15.17
2019-01-13T08:49:56.380Z,13.20
2019-01-13T08:52:41.323Z,11.40
2019-01-13T08:55:26.469Z,11.33
2019-01-13T08:58:11.282Z,13.10
2019-01-13T09:00:55.995Z,8.50
2019-01-13T09:03:40.478Z,9.17
2019-01-13T09:06:25.154Z,10.93
2019-01-13T09:09:10.088Z,7.33
2019-01-13T09:11:55.270Z,9.30
2019-01-13T09:14:40.313Z,8.67
2019-01-13T09:17:25.342Z,7.47
2019-01-13T09:20:18.396Z,8.77
2019-01-13T09:23:03.836Z,8.97
2019-01-13T09:25:48.848Z,8.33
2019-01-13T09:28:34.127Z,8.50
2019-01-13T09:31:19.091Z,11.23
2019-01-13T09:34:04.011Z,10.40
2019-01-13T09:36:48.899Z,10.83
2019-01-13T09:39:33.309Z,9.37
2019-01-13T09:42:18.090Z,10.40
2019-01-13T09:45:06.758Z,11.40
2019-01-13T09:47:51.924Z,11.10
2019-01-13T09:50:36.851Z,12.30
2019-01-13T09:53:21.930Z,11.80
2019-01-13T09:56:07.068Z,11.23
2019-01-13T09:58:52.477Z,12.13
2019-01-13T10:01:37.174Z,14.37
2019-01-13T10:04:22.105Z,14.87
2019-01-13T10:07:06.804Z,12.10
2019-01-13T10:09:52.167Z,14.57
2019-01-13T10:12:37.330Z,11.93
2019-01-13T10:15:26.369Z,17.00
2019-01-13T10:18:11.723Z,12.83
2019-01-13T10:20:56.820Z,14.17
2019-01-13T10:23:42.084Z,15.03
2019-01-13T10:26:26.744Z,12.80
2019-01-13T10:29:11.573Z,16.87
2019-01-13T10:31:56.514Z,12.60
2019-01-13T10:34:41.803Z,13.33
2019-01-13T10:37:27.126Z,13.90
2019-01-13T10:40:15.039Z,16.07
2019-01-13T10:43:00.524Z,15.77
2019-01-13T10:45:45.227Z,15.63
2019-01-13T10:48:30.492Z,15.23
2019-01-13T10:51:15.454Z,14.80
2019-01-13T10:54:00.539Z,12.77
2019-01-13T10:56:45.555Z,12.50
2019-01-13T10:59:30.562Z,12.60
2019-01-13T11:02:15.882Z,13.07
2019-01-13T11:05:00.769Z,11.93
2019-01-13T11:07:46.260Z,13.20
2019-01-13T11:10:30.918Z,10.57
2019-01-13T11:13:16.100Z,11.40
2019-01-13T11:16:01.109Z,10.97
2019-01-13T11:18:46.013Z,8.80
2019-01-13T11:21:31.254Z,9.27
2019-01-13T11:24:16.373Z,9.50
2019-01-13T11:27:01.378Z,10.03
2019-01-13T11:29:46.581Z,9.23
2019-01-13T11:32:31.778Z,7.80
2019-01-13T11:35:16.789Z,7.50
2019-01-13T11:38:01.861Z,7.20
2019-01-13T11:40:47.055Z,7.23
2019-01-13T11:43:32.068Z,5.90
2019-01-13T11:46:17.152Z,5.00
2019-01-13T11:49:03.249Z,5.50
2019-01-13T11:51:49.245Z,5.40
2019-01-13T11:54:33.938Z,4.90
2019-01-13T11:57:18.847Z,5.37
2019-01-13T12:00:22.402Z,4.80
2019-01-13T12:03:07.323Z,4.00
2019-01-13T12:05:52.234Z,3.50
2019-01-13T12:08:37.105Z,4.17
2019-01-13T12:11:22.020Z,4.20
2019-01-13T12:14:07.521Z,5.07
2019-01-13T12:16:52.279Z,3.93
2019-01-13T12:19:37.874Z,4.03
2019-01-13T12:22:22.642Z,4.47
2019-01-13T12:25:11.262Z,4.10
2019-01-13T12:27:56.488Z,5.00
2019-01-13T12:30:41.469Z,3.67
2019-01-13T12:33:26.035Z,4.40
2019-01-13T12:36:11.176Z,4.40
2019-01-13T12:38:56.264Z,3.83
2019-01-13T12:41:41.302Z,4.50
2019-01-13T12:44:26.286Z,4.03
2019-01-13T12:47:11.454Z,4.57
2019-01-13T12:49:56.423Z,6.27
2019-01-13T12:52:41.390Z,4.03
2019-01-13T12:55:26.634Z,4.57
2019-01-13T12:58:11.613Z,6.03
2019-01-13T13:00:56.761Z,5.23
2019-01-13T13:03:41.803Z,7.07
2019-01-13T13:06:26.855Z,4.73
2019-01-13T13:09:11.932Z,4.60
2019-01-13T13:11:57.096Z,4.97
2019-01-13T13:14:42.051Z,4.07
2019-01-13T13:17:27.239Z,4.70
2019-01-13T13:20:13.962Z,4.60
2019-01-13T13:22:59.127Z,3.60
2019-01-13T13:25:44.058Z,3.20
2019-01-13T13:28:28.865Z,3.50
2019-01-13T13:31:13.711Z,3.30
2019-01-13T13:33:58.675Z,3.87
2019-01-13T13:36:43.829Z,3.33
2019-01-13T13:39:28.710Z,3.50
2019-01-13T13:42:13.962Z,3.40
2019-01-13T13:44:58.937Z,3.87
2019-01-13T13:47:43.587Z,4.00
2019-01-13T13:50:28.697Z,3.60
2019-01-13T13:53:14.017Z,3.93
2019-01-13T13:55:58.891Z,3.80
2019-01-13T13:58:43.914Z,4.73
2019-01-13T14:01:28.965Z,5.30
2019-01-13T14:04:13.558Z,5.57
2019-01-13T14:06:58.581Z,5.10
2019-01-13T14:09:43.774Z,5.00
2019-01-13T14:12:28.624Z,4.80
2019-01-13T14:15:14.372Z,5.50
2019-01-13T14:17:59.618Z,5.30
2019-01-13T14:20:44.526Z,5.40
2019-01-13T14:23:29.724Z,4.77
2019-01-13T14:26:14.804Z,5.03
2019-01-13T14:28:59.758Z,5.90
2019-01-13T14:31:44.818Z,5.33
2019-01-13T14:34:29.858Z,5.57
2019-01-13T14:37:14.444Z,5.00
2019-01-13T14:39:59.464Z,6.30
2019-01-13T14:42:44.280Z,5.60
2019-01-13T14:45:29.243Z,5.30
2019-01-13T14:48:14.029Z,6.13
2019-01-13T14:50:59.511Z,4.97
2019-01-13T14:53:44.483Z,4.43
2019-01-13T14:56:29.299Z,4.90
2019-01-13T14:59:14.677Z,4.40
2019-01-13T15:01:59.572Z,3.70
2019-01-13T15:04:44.948Z,4.27
2019-01-13T15:07:29.842Z,4.40
2019-01-13T15:10:19.912Z,4.47
2019-01-13T15:13:04.946Z,4.43
2019-01-13T15:15:50.036Z,3.90
2019-01-13T15:18:35.286Z,3.93
2019-01-13T15:21:20.724Z,3.63
2019-01-13T15:24:05.287Z,3.90
2019-01-13T15:26:51.006Z,4.30
2019-01-13T15:29:36.337Z,4.00
2019-01-13T15:32:21.604Z,4.47
2019-01-13T15:35:06.590Z,4.83
2019-01-13T15:37:51.939Z,4.50
2019-01-13T15:40:36.739Z,4.20
2019-01-13T15:43:22.289Z,5.60
2019-01-13T15:46:07.670Z,4.73
2019-01-13T15:48:52.878Z,4.27
2019-01-13T15:51:37.716Z,4.90
2019-01-13T15:54:23.287Z,4.43
2019-01-13T15:57:08.236Z,4.80
2019-01-13T15:59:53.321Z,5.93
2019-01-13T16:02:38.392Z,6.17
2019-01-13T16:05:24.078Z,7.47
2019-01-13T16:08:09.578Z,5.00
2019-01-13T16:10:54.553Z,5.23
2019-01-13T16:13:39.924Z,6.57
2019-01-13T16:16:24.880Z,5.63
2019-01-13T16:19:10.156Z,5.30
2019-01-13T16:21:55.097Z,6.70
2019-01-13T16:24:40.517Z,8.27
2019-01-13T16:27:25.647Z,7.23
2019-01-13T16:30:14.498Z,10.03
2019-01-13T16:32:59.486Z,11.03
2019-01-13T16:35:44.634Z,8.97
2019-01-13T16:38:29.668Z,13.93
2019-01-13T16:41:14.905Z,10.57
2019-01-13T16:44:00.125Z,14.17
2019-01-13T16:46:45.350Z,14.43
2019-01-13T16:49:30.092Z,19.23
2019-01-13T16:52:15.439Z,16.67
2019-01-13T16:55:00.652Z,14.27
2019-01-13T16:57:45.770Z,17.17
2019-01-13T17:00:30.922Z,17.17
2019-01-13T17:03:15.935Z,19.97
2019-01-13T17:06:00.792Z,13.17
2019-01-13T17:08:45.842Z,15.37
2019-01-13T17:11:31.520Z,18.67
2019-01-13T17:14:16.380Z,19.23
2019-01-13T17:17:01.248Z,22.60
2019-01-13T17:19:46.332Z,18.80
2019-01-13T17:22:31.560Z,17.93
2019-01-13T17:25:19.272Z,19.80
2019-01-13T17:28:04.163Z,15.77
2019-01-13T17:30:49.313Z,17.37
2019-01-13T17:33:34.296Z,12.97
2019-01-13T17:36:19.482Z,13.07
2019-01-13T17:39:07.102Z,16.90
2019-01-13T17:41:52.193Z,13.53
2019-01-13T17:44:37.344Z,18.60
2019-01-13T17:47:22.612Z,13.00
2019-01-13T17:50:11.121Z,5.70
2019-01-13T17:52:56.612Z,7.23
2019-01-13T17:55:41.781Z,10.13
2019-01-13T17:58:26.826Z,11.43
2019-01-13T18:01:13.512Z,9.80
2019-01-13T18:03:58.884Z,12.50
2019-01-13T18:06:44.133Z,10.43
2019-01-13T18:09:29.420Z,14.27
2019-01-13T18:12:14.531Z,8.80
2019-01-13T18:14:59.660Z,12.03
2019-01-13T18:17:44.635Z,13.33
2019-01-13T18:20:29.967Z,13.53
2019-01-13T18:23:15.069Z,15.80
2019-01-13T18:26:00.374Z,11.70
2019-01-13T18:28:45.316Z,20.07
2019-01-13T18:31:30.464Z,13.27
2019-01-13T18:34:15.735Z,15.73
2019-01-13T18:37:00.567Z,14.87
2019-01-13T18:39:45.727Z,15.97
2019-01-13T18:42:30.815Z,11.17
2019-01-13T18:45:16.267Z,19.30
2019-01-13T18:48:01.381Z,14.93
2019-01-13T18:50:46.324Z,16.50
2019-01-13T18:53:31.345Z,6.03
2019-01-13T18:56:16.753Z,5.33
2019-01-13T18:59:01.844Z,3.43
2019-01-13T19:01:46.898Z,4.33
2019-01-13T19:04:31.916Z,3.83
2019-01-13T19:07:16.731Z,2.13
2019-01-13T19:10:14.391Z,2.10
2019-01-13T19:13:25.775Z,3.73
2019-01-13T19:16:14.518Z,4.07
2019-01-13T19:18:59.694Z,3.63
2019-01-13T19:21:45.070Z,2.33
2019-01-13T19:24:29.965Z,5.47
2019-01-13T19:27:15.353Z,6.63
2019-01-13T19:30:00.379Z,5.87
2019-01-13T19:32:45.402Z,9.00
2019-01-13T19:35:31.087Z,4.13
2019-01-13T19:38:16.196Z,5.53
2019-01-13T19:41:01.394Z,7.47
2019-01-13T19:43:46.456Z,7.77
2019-01-13T19:46:31.313Z,8.50
2019-01-13T19:49:16.091Z,8.03
2019-01-13T19:52:01.153Z,10.27
2019-01-13T19:54:46.434Z,12.13
2019-01-13T19:57:31.312Z,13.67
2019-01-13T20:00:28.656Z,9.53
2019-01-13T20:03:13.743Z,16.60
2019-01-13T20:05:58.745Z,16.13
2019-01-13T20:08:43.690Z,15.73
2019-01-13T20:11:28.823Z,17.67
2019-01-13T20:14:14.038Z,15.50
2019-01-13T20:16:59.166Z,11.80
2019-01-13T20:19:44.028Z,13.10
2019-01-13T20:22:29.252Z,19.50
2019-01-13T20:25:16.240Z,14.53
2019-01-13T20:28:01.420Z,11.03
2019-01-13T20:30:46.707Z,6.63
2019-01-13T20:33:32.215Z,5.83
2019-01-13T20:36:17.464Z,3.73
2019-01-13T20:39:07.357Z,5.57
2019-01-13T20:41:52.622Z,3.47
2019-01-13T20:44:37.639Z,5.70
2019-01-13T20:47:22.762Z,6.60
2019-01-13T20:50:10.635Z,5.17
2019-01-13T20:52:55.392Z,6.27
2019-01-13T20:55:40.561Z,6.17
2019-01-13T20:58:25.421Z,5.33
2019-01-13T21:01:10.785Z,7.00
2019-01-13T21:03:55.886Z,9.37
2019-01-13T21:06:41.195Z,11.77
2019-01-13T21:09:26.002Z,11.17
2019-01-13T21:12:11.197Z,12.70
2019-01-13T21:14:58.056Z,12.60
2019-01-13T21:17:43.300Z,9.20
2019-01-13T21:20:28.278Z,11.37
2019-01-13T21:23:13.348Z,12.53
2019-01-13T21:25:58.543Z,9.17
2019-01-13T21:28:43.585Z,6.13
2019-01-13T21:31:28.560Z,7.37
2019-01-13T21:34:13.568Z,9.33
2019-01-13T21:36:58.674Z,10.73
2019-01-13T21:39:43.680Z,12.07
2019-01-13T21:42:28.768Z,12.03
2019-01-13T21:45:16.701Z,8.37
2019-01-13T21:48:01.352Z,11.80
2019-01-13T21:50:45.845Z,10.73
2019-01-13T21:53:31.047Z,19.97
2019-01-13T21:56:16.349Z,17.07
2019-01-13T21:59:01.462Z,15.57
2019-01-13T22:01:46.613Z,21.67
2019-01-13T22:04:31.750Z,18.00
2019-01-13T22:07:16.667Z,21.27
2019-01-13T22:10:01.619Z,19.77
2019-01-13T22:12:46.720Z,18.20
2019-01-13T22:15:31.743Z,18.57
2019-01-13T22:18:16.801Z,17.90
2019-01-13T22:21:01.977Z,18.83
2019-01-13T22:23:47.061Z,20.20
2019-01-13T22:26:32.123Z,13.73
2019-01-13T22:29:17.236Z,12.77
2019-01-13T22:32:02.044Z,13.40
2019-01-13T22:34:46.821Z,12.77
2019-01-13T22:37:31.911Z,10.80
2019-01-13T22:40:17.630Z,10.67
2019-01-13T22:43:02.690Z,14.33
2019-01-13T22:45:47.665Z,8.23
2019-01-13T22:48:32.615Z,10.97
2019-01-13T22:51:17.271Z,12.47
2019-01-13T22:54:02.284Z,12.90
2019-01-13T22:56:47.261Z,13.80
2019-01-13T22:59:32.354Z,11.20
2019-01-13T23:02:17.539Z,11.60
2019-01-13T23:05:03.478Z,11.47
2019-01-13T23:07:48.404Z,16.60
2019-01-13T23:10:33.145Z,12.47
2019-01-13T23:13:18.211Z,13.10
2019-01-13T23:16:03.569Z,18.67
2019-01-13T23:18:48.367Z,16.30
2019-01-13T23:21:33.650Z,17.13
2019-01-13T23:24:18.404Z,17.07
2019-01-13T23:27:03.436Z,16.73
2019-01-13T23:29:48.175Z,15.93
2019-01-13T23:32:32.956Z,16.07
2019-01-13T23:35:17.776Z,17.23
2019-01-13T23:38:03.040Z,16.67
2019-01-13T23:40:48.112Z,17.13
2019-01-13T23:43:33.271Z,22.50
2019-01-13T23:46:18.182Z,16.00
2019-01-13T23:49:03.707Z,17.67
2019-01-13T23:51:48.479Z,14.40
2019-01-13T23:54:33.479Z,16.90
2019-01-13T23:57:18.342Z,19.87
